createdAt,value
2018-11-22T12:16:06.709Z,99008.09
2018-11-22T12:18:36.972Z,99004.94
2018-11-22T12:21:01.477Z,99000.67
2018-11-22T12:23:28.865Z,99000.69
2018-11-22T12:25:57.685Z,99003.70
2018-11-22T12:28:25.089Z,98994.61
2018-11-22T12:30:53.081Z,98995.48
2018-11-22T12:33:40.839Z,98998.02
2018-11-22T12:36:13.857Z,99001.38
2018-11-22T12:38:42.054Z,98997.93
2018-11-22T12:41:09.489Z,99001.82
2018-11-22T12:43:37.005Z,98998.31
2018-11-22T12:46:04.764Z,98999.16
2018-11-22T12:48:32.711Z,99002.13
2018-11-22T12:51:00.737Z,99000.40
2018-11-22T12:53:28.624Z,98992.70
2018-11-22T12:55:56.021Z,98992.34
2018-11-22T13:01:17.360Z,98993.22
2018-11-22T13:03:45.729Z,98991.98
2018-11-22T13:06:13.219Z,98991.12
2018-11-22T13:08:41.214Z,98990.73
2018-11-22T13:11:08.653Z,98989.41
2018-11-22T13:13:38.666Z,98989.83
2018-11-22T13:16:07.616Z,98992.88
2018-11-22T13:18:35.395Z,98997.19
2018-11-22T13:21:02.999Z,98995.06
2018-11-22T13:23:31.486Z,98995.47
2018-11-22T13:26:00.236Z,98997.19
2018-11-22T13:28:28.287Z,98997.61
2018-11-22T13:30:57.716Z,99003.64
2018-11-22T13:33:25.902Z,98994.57
2018-11-22T13:35:53.320Z,98995.02
2018-11-22T13:38:21.245Z,99001.14
2018-11-22T13:40:50.184Z,98999.03
2018-11-22T13:43:17.697Z,98998.17
2018-11-22T13:45:45.753Z,99002.02
2018-11-22T13:48:13.248Z,99004.14
2018-11-22T13:50:42.107Z,99000.69
2018-11-22T13:53:08.327Z,98998.12
2018-11-22T13:55:37.094Z,99001.52
2018-11-22T13:58:05.060Z,98997.73
2018-11-22T14:00:34.004Z,98989.95
2018-11-22T14:03:04.958Z,98995.59
2018-11-22T14:05:32.344Z,98993.84
2018-11-22T14:08:00.448Z,98991.25
2018-11-22T14:10:27.871Z,98987.36
2018-11-22T14:12:55.282Z,98995.59
2018-11-22T14:15:24.810Z,98993.91
2018-11-22T14:17:54.123Z,98997.38
2018-11-22T14:20:23.930Z,98993.91
2018-11-22T14:22:52.050Z,98994.33
2018-11-22T14:25:19.753Z,98998.67
2018-11-22T14:27:48.152Z,98993.03
2018-11-22T14:30:18.944Z,99000.81
2018-11-22T14:32:48.715Z,98992.14
2018-11-22T14:35:17.071Z,98996.92
2018-11-22T14:37:44.663Z,98993.02
2018-11-22T14:40:15.132Z,98996.03
2018-11-22T14:42:43.101Z,98999.84
2018-11-22T14:45:12.848Z,99002.94
2018-11-22T14:47:40.804Z,99000.80
2018-11-22T14:50:13.661Z,99004.26
2018-11-22T14:52:43.026Z,99007.72
2018-11-22T14:55:11.120Z,99011.20
2018-11-22T14:57:39.185Z,99005.15
2018-11-22T15:00:10.307Z,99003.00
2018-11-22T15:02:38.277Z,98996.50
2018-11-22T15:05:06.470Z,99000.39
2018-11-22T15:07:35.292Z,98999.98
2018-11-22T15:10:03.507Z,99004.30
2018-11-22T15:12:31.513Z,99004.30
2018-11-22T15:14:58.835Z,98997.80
2018-11-22T15:17:26.169Z,99005.15
2018-11-22T15:19:53.612Z,99009.44
2018-11-22T15:22:21.005Z,99006.42
2018-11-22T15:24:48.326Z,99008.14
2018-11-22T15:27:15.814Z,99008.59
2018-11-22T15:29:43.141Z,99009.89
2018-11-22T15:32:10.570Z,99009.06
2018-11-22T15:34:37.891Z,99012.05
2018-11-22T15:37:05.196Z,99009.04
2018-11-22T15:39:32.488Z,99018.96
2018-11-22T15:41:59.824Z,99016.37
2018-11-22T15:44:28.731Z,99025.00
2018-11-22T15:46:55.989Z,99021.53
2018-11-22T15:49:23.320Z,99023.70
2018-11-22T15:51:50.636Z,99025.89
2018-11-22T15:54:18.558Z,99024.57
2018-11-22T15:56:45.895Z,99017.22
2018-11-22T15:59:13.858Z,99025.87
2018-11-22T16:01:41.136Z,99023.25
2018-11-22T16:04:08.457Z,99025.84
2018-11-22T16:06:35.761Z,99028.48
2018-11-22T16:09:03.467Z,99025.04
2018-11-22T16:11:30.975Z,99034.54
2018-11-22T16:13:58.266Z,99025.89
2018-11-22T16:16:25.580Z,99025.44
2018-11-22T16:18:52.891Z,99036.22
2018-11-22T16:21:20.196Z,99038.80
2018-11-22T16:23:47.514Z,99032.77
2018-11-22T16:26:14.822Z,99037.11
2018-11-22T16:28:42.048Z,99032.77
2018-11-22T16:31:09.393Z,99033.63
2018-11-22T16:33:36.818Z,99039.73
2018-11-22T16:36:04.480Z,99031.08
2018-11-22T16:38:32.311Z,99036.66
2018-11-22T16:40:59.326Z,99035.34
2018-11-22T16:43:26.667Z,99030.20
2018-11-22T16:45:53.984Z,99036.64
2018-11-22T16:48:21.241Z,99035.37
2018-11-22T16:50:48.634Z,99026.30
2018-11-22T16:53:16.666Z,99026.30
2018-11-22T16:55:43.956Z,99026.30
2018-11-22T16:58:11.282Z,99032.75
2018-11-22T17:00:39.529Z,99032.33
2018-11-22T17:03:09.356Z,99033.20
2018-11-22T17:05:37.074Z,99037.53
2018-11-22T17:08:05.354Z,99036.23
2018-11-22T17:10:34.004Z,99036.70
2018-11-22T17:13:02.408Z,99035.81
2018-11-22T17:15:31.181Z,99031.03
2018-11-22T17:17:58.957Z,99021.06
2018-11-22T17:20:27.195Z,99021.45
2018-11-22T17:22:54.807Z,99020.58
2018-11-22T17:25:23.556Z,99015.38
2018-11-22T17:27:52.819Z,99018.84
2018-11-22T17:30:22.317Z,99016.20
2018-11-22T17:32:49.833Z,99017.45
2018-11-22T17:35:20.277Z,99008.38
2018-11-22T17:37:47.872Z,99016.08
2018-11-22T17:40:28.200Z,99008.75
2018-11-22T17:42:56.076Z,99010.48
2018-11-22T17:45:27.442Z,99005.70
2018-11-22T17:47:54.788Z,99014.78
2018-11-22T17:50:24.203Z,99010.45
2018-11-22T17:52:51.478Z,99005.70
2018-11-22T17:55:21.657Z,99006.95
2018-11-22T17:57:49.051Z,99010.84
2018-11-22T18:00:23.887Z,99003.09
2018-11-22T18:02:52.129Z,99001.82
2018-11-22T18:05:20.010Z,98996.64
2018-11-22T18:07:47.566Z,98997.04
2018-11-22T18:10:17.645Z,98994.05
2018-11-22T18:12:45.719Z,98998.83
2018-11-22T18:15:14.441Z,99001.05
2018-11-22T18:17:41.948Z,98997.16
2018-11-22T18:20:14.926Z,98990.28
2018-11-22T18:22:42.477Z,98994.19
2018-11-22T18:25:12.476Z,98998.95
2018-11-22T18:27:39.792Z,98988.60
2018-11-22T18:30:10.515Z,98985.14
2018-11-22T18:32:37.832Z,98992.55
2018-11-22T18:35:06.499Z,98992.91
2018-11-22T18:37:33.806Z,98991.59
2018-11-22T18:40:01.083Z,98985.98
2018-11-22T18:42:28.699Z,98988.58
2018-11-22T18:44:56.013Z,98990.34
2018-11-22T18:47:24.798Z,98987.83
2018-11-22T18:49:52.464Z,98994.78
2018-11-22T18:52:20.432Z,98987.41
2018-11-22T18:54:48.081Z,98986.59
2018-11-22T18:57:15.384Z,98987.89
2018-11-22T18:59:42.689Z,98987.45
2018-11-22T19:02:10.295Z,98995.30
2018-11-22T19:04:38.630Z,98991.01
2018-11-22T19:07:06.407Z,98992.30
2018-11-22T19:09:34.060Z,98996.19
2018-11-22T19:12:02.022Z,98990.16
2018-11-22T19:14:29.387Z,98993.16
2018-11-22T19:16:57.824Z,98991.86
2018-11-22T19:19:25.214Z,98995.33
2018-11-22T19:21:53.138Z,98993.60
2018-11-22T19:24:20.807Z,98997.49
2018-11-22T19:26:48.605Z,99005.31
2018-11-22T19:29:16.106Z,99001.42
2018-11-22T19:31:43.699Z,99001.84
2018-11-22T19:34:11.842Z,99000.13
2018-11-22T19:36:39.133Z,99006.61
2018-11-22T19:39:07.619Z,99012.23
2018-11-22T19:41:35.210Z,99018.36
2018-11-22T19:44:04.317Z,99013.16
2018-11-22T19:46:31.788Z,99012.31
2018-11-22T19:48:59.247Z,99017.08
2018-11-22T19:51:27.360Z,99014.08
2018-11-22T19:53:54.761Z,99005.45
2018-11-22T19:56:22.163Z,99009.34
2018-11-22T19:58:52.321Z,99016.77
2018-11-22T20:01:21.698Z,99025.00
2018-11-22T20:03:49.105Z,99020.26
2018-11-22T20:06:16.530Z,99021.58
2018-11-22T20:08:43.933Z,99022.88
2018-11-22T20:11:11.341Z,99030.23
2018-11-22T20:13:38.750Z,99037.56
2018-11-22T20:16:06.144Z,99041.47
2018-11-22T20:18:33.699Z,99030.67
2018-11-22T20:21:01.100Z,99037.60
2018-11-22T20:23:28.567Z,99037.60
2018-11-22T20:25:56.469Z,99036.28
2018-11-22T20:28:23.901Z,99038.45
2018-11-22T20:30:52.125Z,99034.12
2018-11-22T20:33:19.796Z,99036.71
2018-11-22T20:35:47.493Z,99031.52
2018-11-22T20:38:15.034Z,99032.37
2018-11-22T20:40:43.178Z,99024.59
2018-11-22T20:43:10.624Z,99033.22
2018-11-22T20:45:41.099Z,99026.30
2018-11-22T20:48:06.585Z,99022.81
2018-11-22T20:50:34.749Z,99027.52
2018-11-22T20:53:05.037Z,99034.00
2018-11-22T20:55:35.038Z,99034.00
2018-11-22T20:58:04.712Z,99030.98
2018-11-22T21:00:35.103Z,99030.11
2018-11-22T21:03:03.917Z,99029.66
2018-11-22T21:05:31.625Z,99031.41
2018-11-22T21:07:59.055Z,99028.81
2018-11-22T21:10:27.635Z,99024.92
2018-11-22T21:12:55.509Z,99028.79
2018-11-22T21:15:24.160Z,99029.62
2018-11-22T21:17:52.965Z,99033.51
2018-11-22T21:20:23.356Z,99030.92
2018-11-22T21:22:51.992Z,99025.28
2018-11-22T21:25:20.078Z,99030.47
2018-11-22T21:27:47.351Z,99025.33
2018-11-22T21:30:23.232Z,99025.77
2018-11-22T21:32:51.099Z,99025.42
2018-11-22T21:35:18.847Z,99029.73
2018-11-22T21:37:46.736Z,99024.97
2018-11-22T21:40:14.874Z,99025.44
2018-11-22T21:42:42.191Z,99028.02
2018-11-22T21:45:12.421Z,99031.08
2018-11-22T21:47:39.937Z,99031.48
2018-11-22T21:50:08.442Z,99034.08
2018-11-22T21:52:36.099Z,99031.48
2018-11-22T21:55:03.504Z,99037.11
2018-11-22T21:57:30.781Z,99035.38
2018-11-22T21:59:58.148Z,99035.38
2018-11-22T22:02:25.409Z,99037.98
2018-11-22T22:04:52.732Z,99040.60
2018-11-22T22:07:20.082Z,99033.63
2018-11-22T22:09:47.452Z,99025.42
2018-11-22T22:12:14.788Z,99022.81
2018-11-22T22:14:42.097Z,99028.81
2018-11-22T22:17:09.408Z,99028.39
2018-11-22T22:19:36.670Z,99030.11
2018-11-22T22:22:03.979Z,99036.16
2018-11-22T22:24:31.599Z,99033.13
2018-11-22T22:26:58.942Z,99030.16
2018-11-22T22:29:26.235Z,99025.80
2018-11-22T22:31:53.558Z,99031.03
2018-11-22T22:34:21.875Z,99025.44
2018-11-22T22:36:49.509Z,99026.30
2018-11-22T22:39:16.783Z,99028.48
2018-11-22T22:41:44.058Z,99029.73
2018-11-22T22:44:13.254Z,99026.22
2018-11-22T22:46:40.570Z,99029.73
2018-11-22T22:49:07.892Z,99028.39
2018-11-22T22:51:35.189Z,99024.55
2018-11-22T22:54:03.970Z,99022.41
2018-11-22T22:56:31.223Z,99027.09
2018-11-22T22:58:58.622Z,99018.41
2018-11-22T23:01:25.924Z,99023.17
2018-11-22T23:03:53.215Z,99023.63
2018-11-22T23:06:20.575Z,99020.22
2018-11-22T23:08:47.787Z,99022.38
2018-11-22T23:11:15.063Z,99024.50
2018-11-22T23:13:42.369Z,99018.92
2018-11-22T23:16:09.727Z,99021.91
2018-11-22T23:18:36.974Z,99020.16
2018-11-22T23:21:04.763Z,99025.77
2018-11-22T23:23:32.080Z,99017.50
2018-11-22T23:25:59.360Z,99021.41
2018-11-22T23:28:27.939Z,99017.55
2018-11-22T23:30:55.407Z,99014.08
2018-11-22T23:33:23.271Z,99014.97
2018-11-22T23:35:51.457Z,99015.38
2018-11-22T23:38:18.814Z,99017.95
2018-11-22T23:40:46.177Z,99013.66
2018-11-22T23:43:14.044Z,99018.41
2018-11-22T23:45:41.343Z,99011.05
2018-11-22T23:48:08.686Z,99008.89
2018-11-22T23:50:36.162Z,99013.21
2018-11-22T23:53:04.223Z,99007.12
2018-11-22T23:55:31.535Z,99015.36
2018-11-22T23:57:58.966Z,99012.34
